createdAt,value
2023-02-08T00:01:28.410Z,82.23
2023-02-08T00:03:56.848Z,82.41
2023-02-08T00:06:25.390Z,82.50
2023-02-08T00:08:53.784Z,82.45
2023-02-08T00:11:22.179Z,82.73
2023-02-08T00:13:50.587Z,82.64
2023-02-08T00:16:19.219Z,82.64
2023-02-08T00:18:47.895Z,82.50
2023-02-08T00:21:18.798Z,82.34
2023-02-08T00:23:47.711Z,82.35
2023-02-08T00:26:16.841Z,82.38
2023-02-08T00:28:45.468Z,82.27
2023-02-08T00:31:14.029Z,82.01
2023-02-08T00:33:42.633Z,81.95
2023-02-08T00:36:12.057Z,81.90
2023-02-08T00:38:40.901Z,81.75
2023-02-08T00:41:10.023Z,81.94
2023-02-08T00:43:38.521Z,82.00
2023-02-08T00:46:08.154Z,82.06
2023-02-08T00:48:36.592Z,82.36
2023-02-08T00:51:10.341Z,82.39
2023-02-08T00:53:41.328Z,82.21
2023-02-08T00:56:12.092Z,82.24
2023-02-08T00:58:41.063Z,82.23
2023-02-08T01:01:10.199Z,82.26
2023-02-08T01:03:41.485Z,82.45
2023-02-08T01:06:14.681Z,82.35
2023-02-08T01:08:43.824Z,82.33
2023-02-08T01:11:17.628Z,82.23
2023-02-08T01:13:46.192Z,82.34
2023-02-08T01:16:24.563Z,82.38
2023-02-08T01:18:56.110Z,82.40
2023-02-08T01:21:28.658Z,82.25
2023-02-08T01:23:57.514Z,82.25
2023-02-08T01:26:27.187Z,82.15
2023-02-08T01:28:56.577Z,82.19
2023-02-08T01:31:33.926Z,82.14
2023-02-08T01:34:04.498Z,82.11
2023-02-08T01:36:33.953Z,82.09
2023-02-08T01:39:04.429Z,81.92
2023-02-08T01:41:37.636Z,81.94
2023-02-08T01:44:06.269Z,82.08
2023-02-08T01:46:41.205Z,81.95
2023-02-08T01:49:33.624Z,82.10
2023-02-08T01:52:12.173Z,82.30
2023-02-08T01:55:00.662Z,82.35
2023-02-08T01:57:29.845Z,82.06
2023-02-08T02:00:13.990Z,81.99
2023-02-08T02:02:45.741Z,82.16
2023-02-08T02:05:17.594Z,82.35
2023-02-08T02:07:46.848Z,82.33
2023-02-08T02:10:21.982Z,82.34
2023-02-08T02:12:51.054Z,82.42
2023-02-08T02:15:19.796Z,82.41
2023-02-08T02:17:48.554Z,82.49
2023-02-08T02:21:00.786Z,82.47
2023-02-08T02:23:41.568Z,82.55
2023-02-08T02:26:34.611Z,82.79
2023-02-08T02:29:42.174Z,82.59
2023-02-08T02:32:34.655Z,82.88
2023-02-08T02:35:12.949Z,82.92
2023-02-08T02:37:41.274Z,83.01
2023-02-08T02:40:28.061Z,82.79
2023-02-08T02:43:41.510Z,82.71
2023-02-08T02:46:40.408Z,83.06
2023-02-08T02:49:29.225Z,82.99
2023-02-08T02:52:11.626Z,83.08
2023-02-08T02:55:07.707Z,83.28
2023-02-08T02:57:37.277Z,83.41
2023-02-08T03:00:12.106Z,83.45
2023-02-08T03:02:40.633Z,83.44
2023-02-08T03:05:12.360Z,83.48
2023-02-08T03:07:56.197Z,83.44
2023-02-08T03:10:49.346Z,83.41
2023-02-08T03:13:44.343Z,83.52
2023-02-08T03:16:20.256Z,83.36
2023-02-08T03:19:10.564Z,83.45
2023-02-08T03:22:08.227Z,83.37
2023-02-08T03:25:01.447Z,83.48
2023-02-08T03:27:50.474Z,83.51
2023-02-08T03:30:45.269Z,83.51
2023-02-08T03:33:27.228Z,83.50
2023-02-08T03:36:19.510Z,83.45
2023-02-08T03:38:50.889Z,83.84
2023-02-08T03:41:27.683Z,83.90
2023-02-08T03:44:03.563Z,84.11
2023-02-08T03:46:39.599Z,84.01
2023-02-08T03:49:15.222Z,84.14
2023-02-08T03:51:45.457Z,84.31
2023-02-08T03:54:24.402Z,84.31
2023-02-08T03:57:12.951Z,84.18
2023-02-08T03:59:47.278Z,84.14
2023-02-08T04:02:21.298Z,84.36
2023-02-08T04:04:51.632Z,84.24
2023-02-08T04:07:20.449Z,84.18
2023-02-08T04:09:49.014Z,84.40
2023-02-08T04:12:17.871Z,84.50
2023-02-08T04:14:46.353Z,84.38
2023-02-08T04:17:14.894Z,84.35
2023-02-08T04:19:43.361Z,84.53
2023-02-08T04:22:11.917Z,84.29
2023-02-08T04:24:41.041Z,84.22
2023-02-08T04:27:09.461Z,84.35
2023-02-08T04:29:37.973Z,84.28
2023-02-08T04:32:11.579Z,84.43
2023-02-08T04:34:40.920Z,84.40
2023-02-08T04:37:09.618Z,84.41
2023-02-08T04:39:38.553Z,84.53
2023-02-08T04:42:07.116Z,84.41
2023-02-08T04:44:35.770Z,84.48
2023-02-08T04:47:04.350Z,84.49
2023-02-08T04:49:32.755Z,84.59
2023-02-08T04:52:01.267Z,84.68
2023-02-08T04:54:29.869Z,84.79
2023-02-08T04:56:58.410Z,84.69
2023-02-08T04:59:26.864Z,84.46
2023-02-08T05:01:55.305Z,84.48
2023-02-08T05:04:23.727Z,84.04
2023-02-08T05:06:52.048Z,84.08
2023-02-08T05:09:20.569Z,83.87
2023-02-08T05:11:49.107Z,84.06
2023-02-08T05:14:17.693Z,84.02
2023-02-08T05:16:46.084Z,83.77
2023-02-08T05:19:14.610Z,83.77
2023-02-08T05:21:43.070Z,83.94
2023-02-08T05:24:12.567Z,83.90
2023-02-08T05:26:41.702Z,84.06
2023-02-08T05:29:10.732Z,83.96
2023-02-08T05:31:42.859Z,84.00
2023-02-08T05:34:12.331Z,83.97
2023-02-08T05:36:41.270Z,84.01
2023-02-08T05:39:09.714Z,83.94
2023-02-08T05:41:38.507Z,84.12
2023-02-08T05:44:07.096Z,84.14
2023-02-08T05:46:47.881Z,84.24
2023-02-08T05:49:21.212Z,84.28
2023-02-08T05:51:53.486Z,84.42
2023-02-08T05:54:22.308Z,84.17
2023-02-08T05:56:59.790Z,84.30
2023-02-08T05:59:35.510Z,84.19
2023-02-08T06:02:06.784Z,84.27
2023-02-08T06:04:39.208Z,84.46
2023-02-08T06:07:16.307Z,84.29
2023-02-08T06:09:47.069Z,84.50
2023-02-08T06:12:16.905Z,84.46
2023-02-08T06:14:45.610Z,84.52
2023-02-08T06:17:14.275Z,84.61
2023-02-08T06:19:46.122Z,84.70
2023-02-08T06:22:17.079Z,84.70
2023-02-08T06:24:48.682Z,84.80
2023-02-08T06:27:19.720Z,84.83
2023-02-08T06:29:55.658Z,84.94
2023-02-08T06:32:27.206Z,84.80
2023-02-08T06:34:58.410Z,85.03
2023-02-08T06:37:29.836Z,85.09
2023-02-08T06:40:08.816Z,85.24
2023-02-08T06:42:39.092Z,85.11
2023-02-08T06:45:13.722Z,85.28
2023-02-08T06:47:45.093Z,85.63
2023-02-08T06:50:15.301Z,85.50
2023-02-08T06:52:43.974Z,85.73
2023-02-08T06:55:13.044Z,85.93
2023-02-08T06:57:43.792Z,86.12
2023-02-08T07:00:13.926Z,86.37
2023-02-08T07:03:13.220Z,86.60
2023-02-08T07:05:58.671Z,86.99
2023-02-08T07:08:34.101Z,87.29
2023-02-08T07:11:09.238Z,87.48
2023-02-08T07:13:38.308Z,87.85
2023-02-08T07:16:09.783Z,87.94
2023-02-08T07:18:38.542Z,88.31
2023-02-08T07:21:07.069Z,88.33
2023-02-08T07:23:35.471Z,88.54
2023-02-08T07:26:13.294Z,88.48
2023-02-08T07:28:42.283Z,88.66
2023-02-08T07:31:14.722Z,88.58
2023-02-08T07:33:45.157Z,88.70
2023-02-08T07:36:13.657Z,88.69
2023-02-08T07:38:42.252Z,88.77
2023-02-08T07:41:14.264Z,88.79
2023-02-08T07:43:43.551Z,88.83
2023-02-08T07:46:21.574Z,88.78
2023-02-08T07:48:50.085Z,88.85
2023-02-08T07:51:18.984Z,88.94
2023-02-08T07:53:47.442Z,88.96
2023-02-08T07:56:15.992Z,89.06
2023-02-08T07:58:44.887Z,88.98
2023-02-08T08:01:21.990Z,88.90
2023-02-08T08:03:52.676Z,88.86
2023-02-08T08:06:22.763Z,89.07
2023-02-08T08:08:51.878Z,89.13
2023-02-08T08:11:22.044Z,88.90
2023-02-08T08:13:51.115Z,88.82
2023-02-08T08:16:19.910Z,88.81
2023-02-08T08:18:48.920Z,88.93
2023-02-08T08:21:18.118Z,88.81
2023-02-08T08:23:47.570Z,88.61
2023-02-08T08:26:20.358Z,88.51
2023-02-08T08:28:49.476Z,88.39
2023-02-08T08:31:21.689Z,88.55
2023-02-08T08:33:50.438Z,88.58
2023-02-08T08:36:19.237Z,88.47
2023-02-08T08:38:47.715Z,88.31
2023-02-08T08:41:18.108Z,88.50
2023-02-08T08:43:46.862Z,88.31
2023-02-08T08:46:16.729Z,88.19
2023-02-08T08:48:45.755Z,88.15
2023-02-08T08:51:14.492Z,87.95
2023-02-08T08:53:42.825Z,87.88
2023-02-08T08:56:12.195Z,87.93
2023-02-08T08:58:43.589Z,87.76
2023-02-08T09:01:13.989Z,87.65
2023-02-08T09:03:42.564Z,87.75
2023-02-08T09:06:11.164Z,87.66
2023-02-08T09:08:39.820Z,87.78
2023-02-08T09:11:12.526Z,87.39
2023-02-08T09:13:41.708Z,87.58
2023-02-08T09:16:17.321Z,87.49
2023-02-08T09:18:46.324Z,87.28
2023-02-08T09:21:20.059Z,87.28
2023-02-08T09:23:48.770Z,87.13
2023-02-08T09:26:19.908Z,86.98
2023-02-08T09:28:49.105Z,86.73
2023-02-08T09:31:30.585Z,86.70
2023-02-08T09:34:01.091Z,86.47
2023-02-08T09:36:33.575Z,86.27
2023-02-08T09:39:12.256Z,86.48
2023-02-08T09:42:17.151Z,86.32
2023-02-08T09:44:59.106Z,86.03
2023-02-08T09:47:36.480Z,86.10
2023-02-08T09:53:13.584Z,86.36
2023-02-08T09:55:48.119Z,86.04
2023-02-08T09:58:28.857Z,86.17
2023-02-08T10:00:58.036Z,86.17
2023-02-08T10:03:46.634Z,85.83
2023-02-08T10:06:18.585Z,86.02
2023-02-08T10:08:53.922Z,85.84
2023-02-08T10:11:43.309Z,85.73
2023-02-08T10:14:37.900Z,85.77
2023-02-08T10:17:39.224Z,85.85
2023-02-08T10:20:28.763Z,85.69
2023-02-08T10:23:25.516Z,85.64
2023-02-08T10:26:31.870Z,85.42
2023-02-08T10:29:35.049Z,85.34
2023-02-08T10:33:00.106Z,85.50
2023-02-08T10:35:37.310Z,85.92
2023-02-08T10:42:18.628Z,85.92
2023-02-08T10:45:23.910Z,85.91
2023-02-08T10:48:00.774Z,85.45
2023-02-08T10:50:50.047Z,85.22
2023-02-08T10:53:26.722Z,85.39
2023-02-08T10:55:55.118Z,85.34
2023-02-08T10:58:28.762Z,85.61
2023-02-08T11:00:58.980Z,85.63
2023-02-08T11:03:30.118Z,85.72
2023-02-08T11:05:58.527Z,85.50
2023-02-08T11:08:28.927Z,85.93
2023-02-08T11:11:02.812Z,86.20
2023-02-08T11:13:46.310Z,86.43
2023-02-08T11:16:27.924Z,86.28
2023-02-08T11:19:02.658Z,86.73
2023-02-08T11:21:37.956Z,86.05
2023-02-08T11:24:15.323Z,86.06
2023-02-08T11:26:43.883Z,85.77
2023-02-08T11:29:24.874Z,85.53
2023-02-08T11:32:00.259Z,85.53
2023-02-08T11:34:33.034Z,85.73
2023-02-08T11:40:03.948Z,86.12
2023-02-08T11:42:40.626Z,86.16
2023-02-08T11:45:24.347Z,86.15
2023-02-08T11:47:53.694Z,85.91
2023-02-08T11:50:30.169Z,85.25
2023-02-08T11:53:03.625Z,83.99
2023-02-08T11:55:35.200Z,83.35
2023-02-08T11:58:25.102Z,82.92
2023-02-08T12:01:21.607Z,82.18
2023-02-08T12:03:50.939Z,81.81
2023-02-08T12:07:10.958Z,80.77
2023-02-08T12:10:19.558Z,80.36
2023-02-08T12:13:00.572Z,80.39
2023-02-08T12:15:32.008Z,80.52
2023-02-08T12:18:06.605Z,80.76
2023-02-08T12:20:54.009Z,80.98
2023-02-08T12:23:37.407Z,80.95
2023-02-08T12:26:17.817Z,81.14
2023-02-08T12:29:11.013Z,81.25
2023-02-08T12:32:15.386Z,80.93
2023-02-08T12:35:10.550Z,81.14
2023-02-08T12:38:16.433Z,81.21
2023-02-08T12:41:03.039Z,81.99
2023-02-08T12:44:11.268Z,82.40
2023-02-08T12:46:51.793Z,82.23
2023-02-08T12:49:57.904Z,81.49
2023-02-08T12:52:55.377Z,81.31
2023-02-08T12:55:31.747Z,81.57
2023-02-08T12:58:45.835Z,81.55
2023-02-08T13:01:37.145Z,82.01
2023-02-08T13:04:22.439Z,81.58
2023-02-08T13:07:01.313Z,81.19
2023-02-08T13:09:35.002Z,80.75
2023-02-08T13:12:34.566Z,80.10
2023-02-08T13:15:32.715Z,79.90
2023-02-08T13:18:20.977Z,79.72
2023-02-08T13:21:01.942Z,79.52
2023-02-08T13:23:52.733Z,79.38
2023-02-08T13:26:33.967Z,79.29
2023-02-08T13:29:03.812Z,79.60
2023-02-08T13:31:43.058Z,79.44
2023-02-08T13:41:42.654Z,78.81
2023-02-08T13:44:31.844Z,78.50
2023-02-08T13:47:01.181Z,78.12
2023-02-08T13:50:02.083Z,78.08
2023-02-08T13:58:18.784Z,78.42
2023-02-08T14:01:01.043Z,78.51
2023-02-08T14:03:35.945Z,78.84
2023-02-08T14:06:08.261Z,79.07
2023-02-08T14:08:40.094Z,79.21
2023-02-08T14:11:45.928Z,78.96
2023-02-08T14:14:37.964Z,78.94
2023-02-08T14:17:29.595Z,78.80
2023-02-08T14:20:02.236Z,77.92
2023-02-08T14:31:57.668Z,77.26
2023-02-08T14:34:35.009Z,76.86
2023-02-08T14:37:33.285Z,77.17
2023-02-08T14:40:16.990Z,77.06
2023-02-08T14:43:00.812Z,76.05
2023-02-08T14:45:44.551Z,75.50
2023-02-08T14:48:37.312Z,75.32
2023-02-08T14:51:09.063Z,74.97
2023-02-08T14:54:01.645Z,74.31
2023-02-08T14:56:37.407Z,74.09
2023-02-08T14:59:18.382Z,73.75
2023-02-08T15:01:53.656Z,73.00
2023-02-08T15:04:22.402Z,72.54
2023-02-08T15:07:43.382Z,72.54
2023-02-08T15:10:15.183Z,72.92
2023-02-08T15:12:49.392Z,73.26
2023-02-08T15:15:43.930Z,73.35
2023-02-08T15:18:22.573Z,73.40
2023-02-08T15:21:02.982Z,73.56
2023-02-08T15:23:31.900Z,73.85
2023-02-08T15:26:19.170Z,73.44
2023-02-08T15:28:47.725Z,73.11
2023-02-08T15:31:21.802Z,73.13
2023-02-08T15:33:54.373Z,73.30
2023-02-08T15:36:32.795Z,73.28
2023-02-08T15:39:18.021Z,73.34
2023-02-08T15:41:48.955Z,73.81
2023-02-08T15:44:30.126Z,73.68
2023-02-08T15:47:16.532Z,74.14
2023-02-08T15:49:50.681Z,74.27
2023-02-08T15:52:24.874Z,74.65
2023-02-08T15:54:53.313Z,74.69
2023-02-08T15:57:44.931Z,74.92
2023-02-08T16:00:20.306Z,75.18
2023-02-08T16:02:54.464Z,75.23
2023-02-08T16:05:30.991Z,75.46
2023-02-08T16:08:00.814Z,75.59
2023-02-08T16:10:42.739Z,75.82
2023-02-08T16:13:31.928Z,76.03
2023-02-08T16:16:21.834Z,76.27
2023-02-08T16:19:23.865Z,76.58
2023-02-08T16:21:56.226Z,76.83
2023-02-08T16:24:28.116Z,77.20
2023-02-08T16:27:18.712Z,77.64
2023-02-08T16:29:47.880Z,77.64
2023-02-08T16:32:31.760Z,77.67
2023-02-08T16:35:01.462Z,78.03
2023-02-08T16:37:35.137Z,78.24
2023-02-08T16:40:37.609Z,78.33
2023-02-08T16:43:29.370Z,78.71
2023-02-08T16:46:24.492Z,78.89
2023-02-08T16:48:57.208Z,79.11
2023-02-08T16:51:35.273Z,79.30
2023-02-08T16:54:07.717Z,79.40
2023-02-08T16:56:37.711Z,79.66
2023-02-08T16:59:06.268Z,79.76
2023-02-08T17:01:35.890Z,79.93
2023-02-08T17:04:06.578Z,80.12
2023-02-08T17:06:37.522Z,80.46
2023-02-08T17:09:09.096Z,80.65
2023-02-08T17:11:37.830Z,80.75
2023-02-08T17:14:07.962Z,80.75
2023-02-08T17:16:39.828Z,80.90
2023-02-08T17:19:18.669Z,80.91
2023-02-08T17:21:47.067Z,81.09
2023-02-08T17:24:15.426Z,81.10
2023-02-08T17:26:44.661Z,81.42
2023-02-08T17:29:13.406Z,81.71
2023-02-08T17:31:41.870Z,81.66
2023-02-08T17:34:10.299Z,81.89
2023-02-08T17:36:39.735Z,81.97
2023-02-08T17:39:10.501Z,82.27
2023-02-08T17:41:39.932Z,82.26
2023-02-08T17:44:08.423Z,82.53
2023-02-08T17:46:36.934Z,82.44
2023-02-08T17:49:05.412Z,82.68
2023-02-08T17:51:34.391Z,82.82
2023-02-08T17:54:05.436Z,83.05
2023-02-08T17:56:36.736Z,83.22
2023-02-08T17:59:05.599Z,83.39
2023-02-08T18:01:35.115Z,83.71
2023-02-08T18:04:03.856Z,83.83
2023-02-08T18:06:32.303Z,83.91
2023-02-08T18:09:00.700Z,84.04
2023-02-08T18:11:29.038Z,84.09
2023-02-08T18:13:57.401Z,84.29
2023-02-08T18:16:27.932Z,84.37
2023-02-08T18:19:01.232Z,84.43
2023-02-08T18:21:33.238Z,84.57
2023-02-08T18:24:06.077Z,84.69
2023-02-08T18:26:35.251Z,84.81
2023-02-08T18:29:04.534Z,84.84
2023-02-08T18:31:33.138Z,85.04
2023-02-08T18:34:01.828Z,85.06
2023-02-08T18:36:30.744Z,85.16
2023-02-08T18:38:59.547Z,85.25
2023-02-08T18:41:30.409Z,85.22
2023-02-08T18:43:59.358Z,85.24
2023-02-08T18:46:29.198Z,85.18
2023-02-08T18:48:58.005Z,85.38
2023-02-08T18:51:27.132Z,85.48
2023-02-08T18:53:55.988Z,85.63
2023-02-08T18:56:27.326Z,85.72
2023-02-08T18:59:00.666Z,85.88
2023-02-08T19:01:29.587Z,85.77
2023-02-08T19:03:59.091Z,85.63
2023-02-08T19:06:31.411Z,85.89
2023-02-08T19:09:03.592Z,85.93
2023-02-08T19:11:41.622Z,85.90
2023-02-08T19:14:13.230Z,86.01
2023-02-08T19:16:43.055Z,86.13
2023-02-08T19:19:11.438Z,86.33
2023-02-08T19:21:40.480Z,86.45
2023-02-08T19:24:15.039Z,86.55
2023-02-08T19:26:43.844Z,86.43
2023-02-08T19:29:15.850Z,86.65
2023-02-08T19:31:45.607Z,86.77
2023-02-08T19:34:14.129Z,86.78
2023-02-08T19:37:00.788Z,86.83
2023-02-08T19:39:29.178Z,86.83
2023-02-08T19:41:58.988Z,86.90
2023-02-08T19:44:30.255Z,87.02
2023-02-08T19:46:59.407Z,87.05
2023-02-08T19:49:28.524Z,87.06
2023-02-08T19:51:57.459Z,87.11
2023-02-08T19:54:26.729Z,87.13
2023-02-08T19:56:55.890Z,87.33
2023-02-08T19:59:29.371Z,87.45
2023-02-08T20:01:58.161Z,87.46
2023-02-08T20:04:26.581Z,87.52
2023-02-08T20:06:54.971Z,87.43
2023-02-08T20:09:23.419Z,87.41
2023-02-08T20:11:59.737Z,87.30
2023-02-08T20:14:32.753Z,87.32
2023-02-08T20:17:02.559Z,87.28
2023-02-08T20:19:31.097Z,87.20
2023-02-08T20:21:59.488Z,87.42
2023-02-08T20:24:28.506Z,87.33
2023-02-08T20:26:57.136Z,87.30
2023-02-08T20:29:27.844Z,87.40
2023-02-08T20:31:57.389Z,87.43
2023-02-08T20:34:26.278Z,87.51
2023-02-08T20:37:06.832Z,87.62
2023-02-08T20:39:37.298Z,87.81
2023-02-08T20:42:06.192Z,87.84
2023-02-08T20:44:34.804Z,88.00
2023-02-08T20:47:03.287Z,88.08
2023-02-08T20:49:32.643Z,88.22
2023-02-08T20:52:01.476Z,88.17
2023-02-08T20:54:30.200Z,88.39
2023-02-08T20:56:58.708Z,88.42
2023-02-08T20:59:27.237Z,88.30
2023-02-08T21:01:56.032Z,88.37
2023-02-08T21:04:24.478Z,88.56
2023-02-08T21:06:53.096Z,88.48
2023-02-08T21:09:21.828Z,88.45
2023-02-08T21:11:51.999Z,88.44
2023-02-08T21:14:23.394Z,88.40
2023-02-08T21:16:58.916Z,88.39
2023-02-08T21:19:29.012Z,88.35
2023-02-08T21:22:01.145Z,88.38
2023-02-08T21:24:31.077Z,88.40
2023-02-08T21:26:59.993Z,88.29
2023-02-08T21:29:29.363Z,88.19
2023-02-08T21:31:58.952Z,88.25
2023-02-08T21:34:27.679Z,88.37
2023-02-08T21:36:56.193Z,88.31
2023-02-08T21:39:24.598Z,88.39
2023-02-08T21:41:55.434Z,88.37
2023-02-08T21:44:24.026Z,88.40
2023-02-08T21:46:52.432Z,88.54
2023-02-08T21:49:39.670Z,88.56
2023-02-08T21:52:29.440Z,88.70
2023-02-08T21:54:57.917Z,88.75
2023-02-08T21:57:33.118Z,88.72
2023-02-08T22:00:05.949Z,88.65
2023-02-08T22:02:34.822Z,88.72
2023-02-08T22:05:23.099Z,88.68
2023-02-08T22:08:00.556Z,88.64
2023-02-08T22:10:32.521Z,88.74
2023-02-08T22:13:01.194Z,88.58
2023-02-08T22:15:31.000Z,88.58
2023-02-08T22:18:04.311Z,88.60
2023-02-08T22:20:36.181Z,88.69
2023-02-08T22:23:06.007Z,88.70
2023-02-08T22:25:34.413Z,88.78
2023-02-08T22:28:03.112Z,88.74
2023-02-08T22:30:31.619Z,88.77
2023-02-08T22:32:59.995Z,89.08
2023-02-08T22:35:28.632Z,88.91
2023-02-08T22:37:57.221Z,88.86
2023-02-08T22:40:25.657Z,88.97
2023-02-08T22:42:54.276Z,89.13
2023-02-08T22:45:22.808Z,88.95
2023-02-08T22:47:51.176Z,88.90
2023-02-08T22:50:19.589Z,88.87
2023-02-08T22:52:51.226Z,89.00
2023-02-08T22:55:19.734Z,89.00
2023-02-08T22:57:48.523Z,89.13
2023-02-08T23:00:17.462Z,89.07
2023-02-08T23:02:46.100Z,89.26
2023-02-08T23:05:14.811Z,89.22
2023-02-08T23:07:43.348Z,89.08
2023-02-08T23:10:12.065Z,89.10
2023-02-08T23:12:40.515Z,89.12
2023-02-08T23:15:11.067Z,89.01
2023-02-08T23:17:39.465Z,88.98
2023-02-08T23:20:08.674Z,89.02
2023-02-08T23:22:37.878Z,88.96
2023-02-08T23:25:07.077Z,89.07
2023-02-08T23:27:35.999Z,89.11
2023-02-08T23:30:07.910Z,89.04
2023-02-08T23:32:38.369Z,89.40
2023-02-08T23:35:09.948Z,89.40
2023-02-08T23:37:38.872Z,89.49
2023-02-08T23:40:08.152Z,89.65
2023-02-08T23:42:36.866Z,89.63
2023-02-08T23:45:06.044Z,89.96
2023-02-08T23:47:34.593Z,89.77
2023-02-08T23:50:03.759Z,89.58
2023-02-08T23:52:34.724Z,89.26
2023-02-08T23:55:04.763Z,89.25
2023-02-08T23:57:35.914Z,89.21
